Tropical Cyclones
[Index]
Main Index Home Page Stock Weather Photos Extreme Storms Discussion Storm News and Storm Chasing Reports Tropical Cyclones / Hurricanes / Typhoons Weather Data and Links Wild Fires / Bushfires Weather Observation Techniques Weather Picture Catalogue Tornado Pictures and Reports Stock Video Footage and DVDs for sale
Season 2007-2008 Tropical Cyclone NICHOLAS Track Map
Season 2007-2008 Summaries: [BoM-AU] [JTWC-AU] [JTWC-SIO] [JTWC-SPAC] [JTWC-SH]
<<- Previous TC | BoM 2007-2008 Season | Next TC ->>

click for intensity scale information  Lat/long Grid: Show Hide

 Date Labels: Show Hide

Bureau of Meteorology Tropical Cyclone Data

Name: NICHOLAS
Number: 914 / 200708_11

11 Feb 2008 00:00 UTC to 20 Feb 2008 12:00 UTC

    date/time    lat    long    hPa   cat  kts
2008-02-11 00   16.0   121.0    996         20          
2008-02-11 06   16.0   121.0    996         25          
2008-02-11 12   16.0   121.0    994    1    25          
2008-02-11 18   15.9   120.8    994    1    25          
2008-02-12 00   15.8   120.5    992    1    25          
2008-02-12 06   15.6   120.4    990    1    30          
2008-02-12 12   15.1   120.3    986    1    35          
2008-02-12 18   14.9   120.3    986    1    35          
2008-02-13 00   14.6   120.4    986    1    35          
2008-02-13 06   14.7   120.9    986    1    35          
2008-02-13 12   14.8   121.4    986    1    35          
2008-02-13 18   15.3   121.3    990    1    30          
2008-02-14 00   15.6   121.0    992    1    30          
2008-02-14 06   15.8   120.7    986    1    45          
2008-02-14 12   15.9   120.4    978    2    50          
2008-02-14 18   15.8   119.9    974    2    50          
2008-02-15 00   15.8   119.8    970    3    55          
2008-02-15 06   16.0   119.5    964    3    65          
2008-02-15 12   16.2   119.0    960    3    65          
2008-02-15 18   16.0   118.6    958    3    70          
2008-02-16 00   16.4   118.3    956    3    75          
2008-02-16 06   17.1   118.0    948    4    80          
2008-02-16 12   17.8   117.2    948    4    80          
2008-02-16 18   17.6   116.9    948    4    80          
2008-02-17 00   18.0   116.4    948    4    80          
2008-02-17 06   18.3   115.8    948    4    80          
2008-02-17 12   18.7   115.3    956    3    75          
2008-02-17 18   18.9   114.8    948    4    80          
2008-02-18 00   19.4   114.4    956    3    75          
2008-02-18 06   20.0   114.1    956    3    75          
2008-02-18 12   20.4   113.9    968    3    60          
2008-02-18 18   20.9   113.5    970    3    60          
2008-02-19 00   21.5   113.4    972    2    55          
2008-02-19 06   22.0   113.5    972    2    55          
2008-02-19 12   22.4   113.6    980    2    50          
2008-02-19 18   23.0   113.6    980    2    45          
2008-02-20 00   23.6   113.7    988    1    35          
2008-02-20 06   24.6   114.1    994    1    30          
2008-02-20 12   25.5   114.6    996         30          
Winds are 10-min average.

Tropical cyclone tracks developed by Michael Bath using data from the Bureau of Meteorology and Google Maps.


[Australian Severe Weather index] [Copyright Notice] [Email Contacts] [Search This Site] [Privacy Policy]
Document: tropical_cyclone_nicholas.htm Updated: 29 June 2017